Jeffrey G Stover — WDF2069 — position and weather

sailwx.info

Track history (hours):
 
Tides and Currents Weather Stations Pressure Air Temp Water Temp Dewpoint Dewpoint Depression Visibility Wind Speed Wind Dir Waves Ship Positions

Jeffrey G Stover

Owner: AEP River Operations LLC, Chesterfield, MO. More information available from US FCC via Universal Licensing System and Coast Guard Vessel Documentation Center.

Last reported at 2015-Apr-27 11:09 UTC. Time now 2015-Apr-28 10:20 UTC.
Position N 29°60' W 090°48'.

Length 64 m; draft 3.1 m.

Type: Tow > 200 m length. MMSI: 367424480.

Date/timePositionNaut miles runAvg speedWind from/ knotsBaromVisibWave heightAir tempDewpointWater temp
2015-Apr-27 11:09N 29°60' W 090°48'0 0.0
2015-Apr-27 10:33N 29°60' W 090°48'7 0.7
2015-Apr-27 01:25N 30°04' W 090°54'16 3.9
2015-Apr-26 21:23N 30°15' W 091°07'7 6.9
2015-Apr-26 20:22N 30°19' W 091°13'3 3.9
2015-Apr-26 19:33N 30°21' W 091°11'4 3.9
2015-Apr-26 18:33N 30°24' W 091°12'3 3.1
2015-Apr-26 17:33N 30°28' W 091°12'4 4.0
2015-Apr-26 16:33N 30°31' W 091°15'3 3.4
2015-Apr-26 15:33N 30°34' W 091°15'6 6.3
2015-Apr-26 14:33N 30°39' W 091°19'8 7.2
2015-Apr-26 13:31N 30°45' W 091°25'0 0.2
2015-Apr-26 12:17N 30°45' W 091°25'0 0.0
2015-Apr-26 11:32N 30°45' W 091°25'0 0.0
2015-Apr-26 10:33N 30°45' W 091°25'5 1.8
2015-Apr-26 08:05N 30°45' W 091°30'  
Track history (hours):
 
Tides and Currents Weather Stations Pressure Air Temp Water Temp Dewpoint Dewpoint Depression Visibility Wind Speed Wind Dir Waves Ship Positions

Jeffrey G Stover

Owner: AEP River Operations LLC, Chesterfield, MO. More information available from US FCC via Universal Licensing System and Coast Guard Vessel Documentation Center.

Last reported at 2015-Apr-27 11:09 UTC. Time now 2015-Apr-28 10:20 UTC.
Position N 29°60' W 090°48'.

Length 64 m; draft 3.1 m.

Type: Tow > 200 m length. MMSI: 367424480.

Date/timePositionNaut miles runAvg speedWind from/ knotsBaromVisibWave heightAir tempDewpointWater temp
2015-Apr-27 11:09N 29°60' W 090°48'0 0.0
2015-Apr-27 10:33N 29°60' W 090°48'7 0.7
2015-Apr-27 01:25N 30°04' W 090°54'16 3.9
2015-Apr-26 21:23N 30°15' W 091°07'7 6.9
2015-Apr-26 20:22N 30°19' W 091°13'3 3.9
2015-Apr-26 19:33N 30°21' W 091°11'4 3.9
2015-Apr-26 18:33N 30°24' W 091°12'3 3.1
2015-Apr-26 17:33N 30°28' W 091°12'4 4.0
2015-Apr-26 16:33N 30°31' W 091°15'3 3.4
2015-Apr-26 15:33N 30°34' W 091°15'6 6.3
2015-Apr-26 14:33N 30°39' W 091°19'8 7.2
2015-Apr-26 13:31N 30°45' W 091°25'0 0.2
2015-Apr-26 12:17N 30°45' W 091°25'0 0.0
2015-Apr-26 11:32N 30°45' W 091°25'0 0.0
2015-Apr-26 10:33N 30°45' W 091°25'5 1.8
2015-Apr-26 08:05N 30°45' W 091°30'  

Dump ship's entire track history